sensor_id;sensor_type;location;lat;lon;timestamp;P1;durP1;ratioP1;P2;durP2;ratioP2
8225;SDS011;4154;48.810;9.012;2023-10-13T00:00:33;7.25;;;4.47;;
8225;SDS011;4154;48.810;9.012;2023-10-13T00:03:05;7.38;;;4.95;;
8225;SDS011;4154;48.810;9.012;2023-10-13T00:05:32;8.35;;;4.40;;
8225;SDS011;4154;48.810;9.012;2023-10-13T00:07:59;7.05;;;4.60;;
8225;SDS011;4154;48.810;9.012;2023-10-13T00:10:27;5.22;;;4.05;;
8225;SDS011;4154;48.810;9.012;2023-10-13T00:12:54;7.78;;;4.60;;
8225;SDS011;4154;48.810;9.012;2023-10-13T00:15:30;6.45;;;4.45;;
8225;SDS011;4154;48.810;9.012;2023-10-13T00:18:03;6.07;;;4.07;;
8225;SDS011;4154;48.810;9.012;2023-10-13T00:20:37;6.80;;;4.20;;
8225;SDS011;4154;48.810;9.012;2023-10-13T00:23:14;5.53;;;4.38;;
8225;SDS011;4154;48.810;9.012;2023-10-13T00:25:45;7.47;;;4.20;;
8225;SDS011;4154;48.810;9.012;2023-10-13T00:28:17;7.35;;;4.35;;
8225;SDS011;4154;48.810;9.012;2023-10-13T00:30:50;6.57;;;4.20;;
8225;SDS011;4154;48.810;9.012;2023-10-13T00:33:25;7.07;;;3.85;;
8225;SDS011;4154;48.810;9.012;2023-10-13T00:35:52;6.50;;;4.35;;
8225;SDS011;4154;48.810;9.012;2023-10-13T00:38:19;7.18;;;4.18;;
8225;SDS011;4154;48.810;9.012;2023-10-13T00:40:48;5.63;;;3.95;;
8225;SDS011;4154;48.810;9.012;2023-10-13T00:43:17;5.45;;;3.83;;
8225;SDS011;4154;48.810;9.012;2023-10-13T00:45:51;5.13;;;3.80;;
8225;SDS011;4154;48.810;9.012;2023-10-13T00:48:37;6.72;;;3.88;;
8225;SDS011;4154;48.810;9.012;2023-10-13T00:51:16;6.10;;;3.90;;
8225;SDS011;4154;48.810;9.012;2023-10-13T00:54:04;4.88;;;3.53;;
8225;SDS011;4154;48.810;9.012;2023-10-13T00:56:41;6.13;;;4.00;;
8225;SDS011;4154;48.810;9.012;2023-10-13T00:59:28;6.13;;;3.55;;
8225;SDS011;4154;48.810;9.012;2023-10-13T01:01:54;4.50;;;3.85;;
8225;SDS011;4154;48.810;9.012;2023-10-13T01:04:20;5.38;;;3.55;;
8225;SDS011;4154;48.810;9.012;2023-10-13T01:06:53;6.80;;;3.30;;
8225;SDS011;4154;48.810;9.012;2023-10-13T01:09:18;6.82;;;3.83;;
8225;SDS011;4154;48.810;9.012;2023-10-13T01:11:48;5.63;;;3.72;;
8225;SDS011;4154;48.810;9.012;2023-10-13T01:14:19;4.60;;;3.60;;
8225;SDS011;4154;48.810;9.012;2023-10-13T01:16:48;6.70;;;3.92;;
8225;SDS011;4154;48.810;9.012;2023-10-13T01:19:17;4.80;;;3.53;;
8225;SDS011;4154;48.810;9.012;2023-10-13T01:21:52;5.72;;;3.75;;
8225;SDS011;4154;48.810;9.012;2023-10-13T01:24:29;5.93;;;3.50;;
8225;SDS011;4154;48.810;9.012;2023-10-13T01:27:02;5.10;;;3.95;;
8225;SDS011;4154;48.810;9.012;2023-10-13T01:29:46;5.75;;;3.78;;
8225;SDS011;4154;48.810;9.012;2023-10-13T01:32:13;4.63;;;3.63;;
8225;SDS011;4154;48.810;9.012;2023-10-13T01:34:41;6.60;;;3.63;;
8225;SDS011;4154;48.810;9.012;2023-10-13T01:37:11;5.50;;;3.63;;
8225;SDS011;4154;48.810;9.012;2023-10-13T01:39:37;5.63;;;3.63;;
8225;SDS011;4154;48.810;9.012;2023-10-13T01:42:03;6.70;;;3.90;;
8225;SDS011;4154;48.810;9.012;2023-10-13T01:44:31;5.47;;;3.78;;
8225;SDS011;4154;48.810;9.012;2023-10-13T01:46:57;5.40;;;3.50;;
8225;SDS011;4154;48.810;9.012;2023-10-13T01:49:31;5.57;;;3.65;;
8225;SDS011;4154;48.810;9.012;2023-10-13T01:52:15;6.25;;;3.92;;
8225;SDS011;4154;48.810;9.012;2023-10-13T01:54:47;5.20;;;3.65;;
8225;SDS011;4154;48.810;9.012;2023-10-13T01:57:15;7.28;;;3.70;;
8225;SDS011;4154;48.810;9.012;2023-10-13T01:59:49;7.50;;;3.38;;
8225;SDS011;4154;48.810;9.012;2023-10-13T02:02:15;5.65;;;3.60;;
8225;SDS011;4154;48.810;9.012;2023-10-13T02:04:55;6.30;;;3.90;;
8225;SDS011;4154;48.810;9.012;2023-10-13T02:07:25;6.90;;;3.53;;
8225;SDS011;4154;48.810;9.012;2023-10-13T02:09:55;4.28;;;3.63;;
8225;SDS011;4154;48.810;9.012;2023-10-13T02:12:21;6.03;;;3.92;;
8225;SDS011;4154;48.810;9.012;2023-10-13T02:15:07;7.18;;;3.80;;
8225;SDS011;4154;48.810;9.012;2023-10-13T02:17:46;4.78;;;3.95;;
8225;SDS011;4154;48.810;9.012;2023-10-13T02:20:16;3.70;;;3.30;;
8225;SDS011;4154;48.810;9.012;2023-10-13T02:22:43;5.90;;;3.60;;
8225;SDS011;4154;48.810;9.012;2023-10-13T02:25:15;5.20;;;3.70;;
8225;SDS011;4154;48.810;9.012;2023-10-13T02:28:02;5.28;;;4.18;;
8225;SDS011;4154;48.810;9.012;2023-10-13T02:30:36;6.82;;;4.00;;
8225;SDS011;4154;48.810;9.012;2023-10-13T02:33:03;4.70;;;3.63;;
8225;SDS011;4154;48.810;9.012;2023-10-13T02:35:31;4.85;;;3.83;;
8225;SDS011;4154;48.810;9.012;2023-10-13T02:38:06;6.07;;;3.85;;
8225;SDS011;4154;48.810;9.012;2023-10-13T02:40:40;5.55;;;3.60;;
8225;SDS011;4154;48.810;9.012;2023-10-13T02:43:07;6.18;;;4.00;;
8225;SDS011;4154;48.810;9.012;2023-10-13T02:45:33;6.45;;;4.03;;
8225;SDS011;4154;48.810;9.012;2023-10-13T02:48:02;6.50;;;3.58;;
8225;SDS011;4154;48.810;9.012;2023-10-13T02:50:42;7.28;;;3.70;;
8225;SDS011;4154;48.810;9.012;2023-10-13T02:53:09;6.90;;;3.70;;
8225;SDS011;4154;48.810;9.012;2023-10-13T02:55:38;5.68;;;3.60;;
8225;SDS011;4154;48.810;9.012;2023-10-13T02:58:23;4.65;;;3.35;;
8225;SDS011;4154;48.810;9.012;2023-10-13T03:01:02;5.03;;;3.40;;
8225;SDS011;4154;48.810;9.012;2023-10-13T03:03:42;4.03;;;3.25;;
8225;SDS011;4154;48.810;9.012;2023-10-13T03:06:16;4.22;;;3.42;;
8225;SDS011;4154;48.810;9.012;2023-10-13T03:08:48;6.72;;;3.80;;
8225;SDS011;4154;48.810;9.012;2023-10-13T03:11:14;5.55;;;3.80;;
8225;SDS011;4154;48.810;9.012;2023-10-13T03:13:45;4.65;;;3.83;;
8225;SDS011;4154;48.810;9.012;2023-10-13T03:16:12;4.90;;;3.33;;
8225;SDS011;4154;48.810;9.012;2023-10-13T03:18:40;4.30;;;3.80;;
8225;SDS011;4154;48.810;9.012;2023-10-13T03:21:22;5.97;;;3.70;;
8225;SDS011;4154;48.810;9.012;2023-10-13T03:23:56;5.55;;;3.50;;
8225;SDS011;4154;48.810;9.012;2023-10-13T03:26:31;7.85;;;3.85;;
8225;SDS011;4154;48.810;9.012;2023-10-13T03:28:59;6.15;;;3.67;;
8225;SDS011;4154;48.810;9.012;2023-10-13T03:31:28;8.02;;;4.00;;
8225;SDS011;4154;48.810;9.012;2023-10-13T03:34:01;6.55;;;3.90;;
8225;SDS011;4154;48.810;9.012;2023-10-13T03:36:29;4.28;;;3.22;;
8225;SDS011;4154;48.810;9.012;2023-10-13T03:39:13;4.90;;;3.60;;
8225;SDS011;4154;48.810;9.012;2023-10-13T03:41:39;4.60;;;3.78;;
8225;SDS011;4154;48.810;9.012;2023-10-13T03:44:05;7.85;;;3.63;;
8225;SDS011;4154;48.810;9.012;2023-10-13T03:46:38;5.82;;;3.78;;
8225;SDS011;4154;48.810;9.012;2023-10-13T03:49:06;4.45;;;3.60;;
8225;SDS011;4154;48.810;9.012;2023-10-13T03:51:37;5.95;;;3.70;;
8225;SDS011;4154;48.810;9.012;2023-10-13T03:54:06;6.57;;;3.60;;
8225;SDS011;4154;48.810;9.012;2023-10-13T03:56:35;6.53;;;3.70;;
8225;SDS011;4154;48.810;9.012;2023-10-13T03:59:03;5.60;;;3.65;;
8225;SDS011;4154;48.810;9.012;2023-10-13T04:01:31;11.10;;;3.75;;
8225;SDS011;4154;48.810;9.012;2023-10-13T04:04:16;6.40;;;3.88;;
8225;SDS011;4154;48.810;9.012;2023-10-13T04:07:01;5.97;;;3.92;;
8225;SDS011;4154;48.810;9.012;2023-10-13T04:09:35;6.00;;;3.80;;
8225;SDS011;4154;48.810;9.012;2023-10-13T04:12:03;6.57;;;3.80;;
8225;SDS011;4154;48.810;9.012;2023-10-13T04:14:31;5.82;;;4.10;;
8225;SDS011;4154;48.810;9.012;2023-10-13T04:17:07;8.95;;;3.80;;
8225;SDS011;4154;48.810;9.012;2023-10-13T04:19:39;6.07;;;3.75;;
8225;SDS011;4154;48.810;9.012;2023-10-13T04:22:25;8.00;;;3.90;;
8225;SDS011;4154;48.810;9.012;2023-10-13T04:25:17;6.85;;;3.80;;
8225;SDS011;4154;48.810;9.012;2023-10-13T04:28:00;7.32;;;4.00;;
8225;SDS011;4154;48.810;9.012;2023-10-13T04:33:22;6.00;;;3.72;;
8225;SDS011;4154;48.810;9.012;2023-10-13T04:35:55;6.82;;;3.60;;
8225;SDS011;4154;48.810;9.012;2023-10-13T04:38:25;5.00;;;3.78;;
8225;SDS011;4154;48.810;9.012;2023-10-13T04:40:59;5.60;;;3.50;;
8225;SDS011;4154;48.810;9.012;2023-10-13T04:43:26;6.00;;;3.88;;
8225;SDS011;4154;48.810;9.012;2023-10-13T04:45:59;5.32;;;3.47;;
8225;SDS011;4154;48.810;9.012;2023-10-13T04:48:39;4.55;;;3.80;;
8225;SDS011;4154;48.810;9.012;2023-10-13T04:51:05;5.05;;;3.90;;
8225;SDS011;4154;48.810;9.012;2023-10-13T04:54:08;5.93;;;3.80;;
8225;SDS011;4154;48.810;9.012;2023-10-13T04:56:50;5.57;;;3.75;;
8225;SDS011;4154;48.810;9.012;2023-10-13T04:59:35;6.88;;;4.00;;
8225;SDS011;4154;48.810;9.012;2023-10-13T05:02:02;5.22;;;3.65;;
8225;SDS011;4154;48.810;9.012;2023-10-13T05:04:46;5.95;;;3.63;;
8225;SDS011;4154;48.810;9.012;2023-10-13T05:07:46;4.78;;;3.78;;
8225;SDS011;4154;48.810;9.012;2023-10-13T05:10:36;5.32;;;3.90;;
8225;SDS011;4154;48.810;9.012;2023-10-13T05:13:21;8.88;;;3.67;;
8225;SDS011;4154;48.810;9.012;2023-10-13T05:16:05;6.95;;;3.75;;
8225;SDS011;4154;48.810;9.012;2023-10-13T05:18:49;5.97;;;3.53;;
8225;SDS011;4154;48.810;9.012;2023-10-13T05:21:34;4.25;;;3.42;;
8225;SDS011;4154;48.810;9.012;2023-10-13T05:24:18;7.25;;;3.75;;
8225;SDS011;4154;48.810;9.012;2023-10-13T05:27:03;5.82;;;4.03;;
8225;SDS011;4154;48.810;9.012;2023-10-13T05:29:48;6.50;;;3.80;;
8225;SDS011;4154;48.810;9.012;2023-10-13T05:32:32;5.15;;;4.00;;
8225;SDS011;4154;48.810;9.012;2023-10-13T05:35:19;6.47;;;4.00;;
8225;SDS011;4154;48.810;9.012;2023-10-13T05:38:04;4.97;;;3.53;;
8225;SDS011;4154;48.810;9.012;2023-10-13T05:41:00;7.78;;;3.90;;
8225;SDS011;4154;48.810;9.012;2023-10-13T05:43:46;6.43;;;3.63;;
8225;SDS011;4154;48.810;9.012;2023-10-13T05:46:32;7.90;;;3.90;;
8225;SDS011;4154;48.810;9.012;2023-10-13T05:49:05;6.97;;;3.97;;
8225;SDS011;4154;48.810;9.012;2023-10-13T05:51:41;5.70;;;3.67;;
8225;SDS011;4154;48.810;9.012;2023-10-13T05:54:12;7.63;;;4.22;;
8225;SDS011;4154;48.810;9.012;2023-10-13T05:56:48;6.38;;;3.97;;
8225;SDS011;4154;48.810;9.012;2023-10-13T05:59:36;7.10;;;3.92;;
8225;SDS011;4154;48.810;9.012;2023-10-13T06:02:21;7.10;;;3.83;;
8225;SDS011;4154;48.810;9.012;2023-10-13T06:05:07;8.75;;;3.70;;
8225;SDS011;4154;48.810;9.012;2023-10-13T06:08:08;7.95;;;3.78;;
8225;SDS011;4154;48.810;9.012;2023-10-13T06:11:00;6.38;;;3.83;;
8225;SDS011;4154;48.810;9.012;2023-10-13T06:13:45;6.93;;;3.72;;
8225;SDS011;4154;48.810;9.012;2023-10-13T06:16:34;6.18;;;3.90;;
8225;SDS011;4154;48.810;9.012;2023-10-13T06:19:37;8.40;;;3.67;;
8225;SDS011;4154;48.810;9.012;2023-10-13T06:22:24;6.18;;;3.72;;
8225;SDS011;4154;48.810;9.012;2023-10-13T06:25:08;7.97;;;3.75;;
8225;SDS011;4154;48.810;9.012;2023-10-13T06:28:11;5.97;;;3.60;;
8225;SDS011;4154;48.810;9.012;2023-10-13T06:30:57;6.88;;;3.92;;
8225;SDS011;4154;48.810;9.012;2023-10-13T06:33:26;6.90;;;3.95;;
8225;SDS011;4154;48.810;9.012;2023-10-13T06:35:55;7.10;;;3.63;;
8225;SDS011;4154;48.810;9.012;2023-10-13T06:38:22;6.07;;;3.80;;
8225;SDS011;4154;48.810;9.012;2023-10-13T06:40:48;10.00;;;4.35;;
8225;SDS011;4154;48.810;9.012;2023-10-13T06:43:15;9.25;;;3.42;;
8225;SDS011;4154;48.810;9.012;2023-10-13T06:45:45;5.93;;;3.75;;
8225;SDS011;4154;48.810;9.012;2023-10-13T06:48:25;8.18;;;3.58;;
8225;SDS011;4154;48.810;9.012;2023-10-13T06:50:51;5.82;;;3.95;;
8225;SDS011;4154;48.810;9.012;2023-10-13T06:53:18;7.57;;;3.92;;
8225;SDS011;4154;48.810;9.012;2023-10-13T06:55:44;7.57;;;3.80;;
8225;SDS011;4154;48.810;9.012;2023-10-13T06:58:14;7.85;;;4.15;;
8225;SDS011;4154;48.810;9.012;2023-10-13T07:00:42;5.10;;;3.60;;
8225;SDS011;4154;48.810;9.012;2023-10-13T07:03:23;7.22;;;3.58;;
8225;SDS011;4154;48.810;9.012;2023-10-13T07:05:50;8.38;;;4.20;;
8225;SDS011;4154;48.810;9.012;2023-10-13T07:08:17;7.53;;;4.05;;
8225;SDS011;4154;48.810;9.012;2023-10-13T07:10:53;5.88;;;3.63;;
8225;SDS011;4154;48.810;9.012;2023-10-13T07:13:42;6.82;;;3.83;;
8225;SDS011;4154;48.810;9.012;2023-10-13T07:16:15;4.68;;;3.53;;
8225;SDS011;4154;48.810;9.012;2023-10-13T07:18:40;7.32;;;3.50;;
8225;SDS011;4154;48.810;9.012;2023-10-13T07:21:14;7.72;;;4.00;;
8225;SDS011;4154;48.810;9.012;2023-10-13T07:23:41;4.70;;;3.55;;
8225;SDS011;4154;48.810;9.012;2023-10-13T07:26:31;6.60;;;3.70;;
8225;SDS011;4154;48.810;9.012;2023-10-13T07:28:58;8.38;;;3.90;;
8225;SDS011;4154;48.810;9.012;2023-10-13T07:31:25;5.60;;;3.40;;
8225;SDS011;4154;48.810;9.012;2023-10-13T07:33:52;6.57;;;4.00;;
8225;SDS011;4154;48.810;9.012;2023-10-13T07:36:28;5.90;;;3.83;;
8225;SDS011;4154;48.810;9.012;2023-10-13T07:38:58;7.07;;;3.80;;
8225;SDS011;4154;48.810;9.012;2023-10-13T07:41:42;7.00;;;3.80;;
8225;SDS011;4154;48.810;9.012;2023-10-13T07:44:07;6.63;;;4.10;;
8225;SDS011;4154;48.810;9.012;2023-10-13T07:46:33;5.75;;;3.53;;
8225;SDS011;4154;48.810;9.012;2023-10-13T07:49:00;6.32;;;3.80;;
8225;SDS011;4154;48.810;9.012;2023-10-13T07:51:39;5.57;;;3.80;;
8225;SDS011;4154;48.810;9.012;2023-10-13T07:54:14;7.90;;;3.72;;
8225;SDS011;4154;48.810;9.012;2023-10-13T07:56:47;5.47;;;3.47;;
8225;SDS011;4154;48.810;9.012;2023-10-13T07:59:13;5.57;;;3.75;;
8225;SDS011;4154;48.810;9.012;2023-10-13T08:01:46;8.30;;;4.00;;
8225;SDS011;4154;48.810;9.012;2023-10-13T08:04:21;7.13;;;3.92;;
8225;SDS011;4154;48.810;9.012;2023-10-13T08:06:53;8.18;;;3.65;;
8225;SDS011;4154;48.810;9.012;2023-10-13T08:09:27;6.03;;;3.33;;
8225;SDS011;4154;48.810;9.012;2023-10-13T08:11:55;6.00;;;3.45;;
8225;SDS011;4154;48.810;9.012;2023-10-13T08:14:21;6.75;;;3.83;;
8225;SDS011;4154;48.810;9.012;2023-10-13T08:16:48;7.45;;;3.67;;
8225;SDS011;4154;48.810;9.012;2023-10-13T08:19:18;6.57;;;3.30;;
8225;SDS011;4154;48.810;9.012;2023-10-13T08:21:56;6.70;;;3.20;;
8225;SDS011;4154;48.810;9.012;2023-10-13T08:24:25;6.32;;;3.40;;
8225;SDS011;4154;48.810;9.012;2023-10-13T08:27:16;6.00;;;3.50;;
8225;SDS011;4154;48.810;9.012;2023-10-13T08:30:00;6.10;;;3.58;;
8225;SDS011;4154;48.810;9.012;2023-10-13T08:32:28;3.83;;;3.22;;
8225;SDS011;4154;48.810;9.012;2023-10-13T08:35:00;8.77;;;3.45;;
8225;SDS011;4154;48.810;9.012;2023-10-13T08:37:30;8.20;;;3.38;;
8225;SDS011;4154;48.810;9.012;2023-10-13T08:40:00;8.02;;;3.65;;
8225;SDS011;4154;48.810;9.012;2023-10-13T08:42:30;9.07;;;3.85;;
8225;SDS011;4154;48.810;9.012;2023-10-13T08:45:09;5.50;;;3.40;;
8225;SDS011;4154;48.810;9.012;2023-10-13T08:48:06;6.70;;;3.33;;
8225;SDS011;4154;48.810;9.012;2023-10-13T08:50:37;5.03;;;3.60;;
8225;SDS011;4154;48.810;9.012;2023-10-13T08:53:18;5.63;;;3.20;;
8225;SDS011;4154;48.810;9.012;2023-10-13T08:55:57;4.60;;;3.10;;
8225;SDS011;4154;48.810;9.012;2023-10-13T08:58:48;7.70;;;3.65;;
8225;SDS011;4154;48.810;9.012;2023-10-13T09:01:18;6.25;;;3.17;;
8225;SDS011;4154;48.810;9.012;2023-10-13T09:04:16;7.05;;;3.30;;
8225;SDS011;4154;48.810;9.012;2023-10-13T09:06:56;9.18;;;3.60;;
8225;SDS011;4154;48.810;9.012;2023-10-13T09:12:24;8.00;;;3.33;;
8225;SDS011;4154;48.810;9.012;2023-10-13T09:14:58;7.00;;;3.35;;
8225;SDS011;4154;48.810;9.012;2023-10-13T09:17:43;8.15;;;3.15;;
8225;SDS011;4154;48.810;9.012;2023-10-13T09:20:18;8.07;;;3.40;;
8225;SDS011;4154;48.810;9.012;2023-10-13T09:23:08;10.15;;;3.30;;
8225;SDS011;4154;48.810;9.012;2023-10-13T09:25:48;5.85;;;3.25;;
8225;SDS011;4154;48.810;9.012;2023-10-13T09:28:23;6.55;;;3.15;;
8225;SDS011;4154;48.810;9.012;2023-10-13T09:30:53;6.45;;;3.15;;
8225;SDS011;4154;48.810;9.012;2023-10-13T09:33:22;8.18;;;3.33;;
8225;SDS011;4154;48.810;9.012;2023-10-13T09:36:11;5.88;;;3.08;;
8225;SDS011;4154;48.810;9.012;2023-10-13T09:38:38;8.68;;;3.30;;
8225;SDS011;4154;48.810;9.012;2023-10-13T09:41:05;6.53;;;3.40;;
8225;SDS011;4154;48.810;9.012;2023-10-13T09:43:46;6.75;;;3.35;;
8225;SDS011;4154;48.810;9.012;2023-10-13T09:46:19;10.35;;;3.60;;
8225;SDS011;4154;48.810;9.012;2023-10-13T09:48:48;7.55;;;3.38;;
8225;SDS011;4154;48.810;9.012;2023-10-13T09:51:29;6.80;;;3.30;;
8225;SDS011;4154;48.810;9.012;2023-10-13T09:54:04;10.40;;;3.22;;
8225;SDS011;4154;48.810;9.012;2023-10-13T09:56:51;7.85;;;3.17;;
8225;SDS011;4154;48.810;9.012;2023-10-13T09:59:36;7.15;;;3.33;;
8225;SDS011;4154;48.810;9.012;2023-10-13T10:02:17;7.38;;;3.33;;
8225;SDS011;4154;48.810;9.012;2023-10-13T10:04:53;5.00;;;3.17;;
8225;SDS011;4154;48.810;9.012;2023-10-13T10:07:58;6.78;;;3.22;;
8225;SDS011;4154;48.810;9.012;2023-10-13T10:10:32;4.95;;;3.28;;
8225;SDS011;4154;48.810;9.012;2023-10-13T10:16:24;7.28;;;3.40;;
8225;SDS011;4154;48.810;9.012;2023-10-13T10:22:12;4.68;;;3.33;;
8225;SDS011;4154;48.810;9.012;2023-10-13T10:24:55;4.55;;;3.17;;
8225;SDS011;4154;48.810;9.012;2023-10-13T10:27:27;8.40;;;2.80;;
8225;SDS011;4154;48.810;9.012;2023-10-13T10:29:57;4.95;;;2.97;;
8225;SDS011;4154;48.810;9.012;2023-10-13T10:35:06;7.47;;;3.17;;
8225;SDS011;4154;48.810;9.012;2023-10-13T10:37:34;5.97;;;3.20;;
8225;SDS011;4154;48.810;9.012;2023-10-13T10:40:06;7.43;;;2.88;;
8225;SDS011;4154;48.810;9.012;2023-10-13T10:42:33;6.75;;;3.30;;
8225;SDS011;4154;48.810;9.012;2023-10-13T10:44:59;8.65;;;3.40;;
8225;SDS011;4154;48.810;9.012;2023-10-13T10:47:30;7.20;;;3.10;;
8225;SDS011;4154;48.810;9.012;2023-10-13T10:49:58;5.45;;;3.05;;
8225;SDS011;4154;48.810;9.012;2023-10-13T10:52:44;6.22;;;3.10;;
8225;SDS011;4154;48.810;9.012;2023-10-13T10:55:11;6.60;;;3.20;;
8225;SDS011;4154;48.810;9.012;2023-10-13T10:57:44;4.32;;;2.92;;
8225;SDS011;4154;48.810;9.012;2023-10-13T11:00:20;5.40;;;3.17;;
8225;SDS011;4154;48.810;9.012;2023-10-13T11:02:54;6.35;;;3.03;;
8225;SDS011;4154;48.810;9.012;2023-10-13T11:05:20;7.03;;;3.00;;
8225;SDS011;4154;48.810;9.012;2023-10-13T11:07:49;6.72;;;3.08;;
8225;SDS011;4154;48.810;9.012;2023-10-13T11:10:17;5.90;;;2.90;;
8225;SDS011;4154;48.810;9.012;2023-10-13T11:12:53;5.55;;;2.90;;
8225;SDS011;4154;48.810;9.012;2023-10-13T11:15:21;8.55;;;3.28;;
8225;SDS011;4154;48.810;9.012;2023-10-13T11:17:58;7.20;;;2.97;;
8225;SDS011;4154;48.810;9.012;2023-10-13T11:20:25;5.38;;;3.00;;
8225;SDS011;4154;48.810;9.012;2023-10-13T11:22:51;6.20;;;2.72;;
8225;SDS011;4154;48.810;9.012;2023-10-13T11:25:24;5.72;;;2.90;;
8225;SDS011;4154;48.810;9.012;2023-10-13T11:28:13;4.30;;;2.58;;
8225;SDS011;4154;48.810;9.012;2023-10-13T11:30:53;4.55;;;3.20;;
8225;SDS011;4154;48.810;9.012;2023-10-13T11:33:23;7.10;;;3.10;;
8225;SDS011;4154;48.810;9.012;2023-10-13T11:35:54;6.05;;;2.95;;
8225;SDS011;4154;48.810;9.012;2023-10-13T11:41:00;4.45;;;2.78;;
8225;SDS011;4154;48.810;9.012;2023-10-13T11:43:31;4.97;;;3.35;;
8225;SDS011;4154;48.810;9.012;2023-10-13T11:46:18;6.75;;;3.10;;
8225;SDS011;4154;48.810;9.012;2023-10-13T11:49:06;5.03;;;2.92;;
8225;SDS011;4154;48.810;9.012;2023-10-13T11:51:57;6.50;;;3.25;;
8225;SDS011;4154;48.810;9.012;2023-10-13T11:54:33;6.82;;;3.17;;
8225;SDS011;4154;48.810;9.012;2023-10-13T11:57:03;5.30;;;3.00;;
8225;SDS011;4154;48.810;9.012;2023-10-13T11:59:32;6.75;;;2.97;;
8225;SDS011;4154;48.810;9.012;2023-10-13T12:02:01;5.45;;;2.80;;
8225;SDS011;4154;48.810;9.012;2023-10-13T12:04:36;8.07;;;3.03;;
8225;SDS011;4154;48.810;9.012;2023-10-13T12:07:14;6.25;;;3.30;;
8225;SDS011;4154;48.810;9.012;2023-10-13T12:09:45;6.47;;;3.10;;
8225;SDS011;4154;48.810;9.012;2023-10-13T12:12:21;7.72;;;3.40;;
8225;SDS011;4154;48.810;9.012;2023-10-13T12:14:51;6.70;;;2.78;;
8225;SDS011;4154;48.810;9.012;2023-10-13T12:17:18;7.88;;;3.13;;
8225;SDS011;4154;48.810;9.012;2023-10-13T12:19:51;6.05;;;3.00;;
8225;SDS011;4154;48.810;9.012;2023-10-13T12:22:17;4.90;;;3.13;;
8225;SDS011;4154;48.810;9.012;2023-10-13T12:24:50;7.68;;;3.40;;
8225;SDS011;4154;48.810;9.012;2023-10-13T12:27:18;4.65;;;3.00;;
8225;SDS011;4154;48.810;9.012;2023-10-13T12:29:47;5.40;;;3.10;;
8225;SDS011;4154;48.810;9.012;2023-10-13T12:32:16;6.93;;;3.25;;
8225;SDS011;4154;48.810;9.012;2023-10-13T12:34:47;4.68;;;2.90;;
8225;SDS011;4154;48.810;9.012;2023-10-13T12:37:41;6.05;;;2.83;;
8225;SDS011;4154;48.810;9.012;2023-10-13T12:40:08;5.93;;;3.10;;
8225;SDS011;4154;48.810;9.012;2023-10-13T12:42:55;5.40;;;3.00;;
8225;SDS011;4154;48.810;9.012;2023-10-13T12:45:39;4.80;;;3.17;;
8225;SDS011;4154;48.810;9.012;2023-10-13T12:48:28;5.57;;;3.00;;
8225;SDS011;4154;48.810;9.012;2023-10-13T12:51:13;6.18;;;2.90;;
8225;SDS011;4154;48.810;9.012;2023-10-13T12:53:49;4.57;;;2.75;;
8225;SDS011;4154;48.810;9.012;2023-10-13T12:56:17;4.93;;;2.92;;
8225;SDS011;4154;48.810;9.012;2023-10-13T12:58:50;4.75;;;2.97;;
8225;SDS011;4154;48.810;9.012;2023-10-13T13:01:26;3.33;;;2.78;;
8225;SDS011;4154;48.810;9.012;2023-10-13T13:03:58;5.00;;;3.10;;
8225;SDS011;4154;48.810;9.012;2023-10-13T13:06:24;4.80;;;2.97;;
8225;SDS011;4154;48.810;9.012;2023-10-13T13:08:56;8.25;;;3.13;;
8225;SDS011;4154;48.810;9.012;2023-10-13T13:11:23;4.80;;;2.85;;
8225;SDS011;4154;48.810;9.012;2023-10-13T13:13:50;8.10;;;3.10;;
8225;SDS011;4154;48.810;9.012;2023-10-13T13:16:17;3.85;;;2.85;;
8225;SDS011;4154;48.810;9.012;2023-10-13T13:18:44;5.47;;;2.85;;
8225;SDS011;4154;48.810;9.012;2023-10-13T13:21:10;5.53;;;2.92;;
8225;SDS011;4154;48.810;9.012;2023-10-13T13:23:48;3.20;;;2.63;;
8225;SDS011;4154;48.810;9.012;2023-10-13T13:26:20;5.35;;;2.83;;
8225;SDS011;4154;48.810;9.012;2023-10-13T13:28:49;5.07;;;2.95;;
8225;SDS011;4154;48.810;9.012;2023-10-13T13:31:19;5.57;;;2.97;;
8225;SDS011;4154;48.810;9.012;2023-10-13T13:33:51;7.85;;;3.17;;
8225;SDS011;4154;48.810;9.012;2023-10-13T13:36:17;6.05;;;3.15;;
8225;SDS011;4154;48.810;9.012;2023-10-13T13:38:44;3.92;;;2.70;;
8225;SDS011;4154;48.810;9.012;2023-10-13T13:41:15;5.38;;;3.00;;
8225;SDS011;4154;48.810;9.012;2023-10-13T13:43:46;5.57;;;3.08;;
8225;SDS011;4154;48.810;9.012;2023-10-13T13:46:17;4.53;;;2.97;;
8225;SDS011;4154;48.810;9.012;2023-10-13T13:48:50;6.93;;;3.13;;
8225;SDS011;4154;48.810;9.012;2023-10-13T13:51:22;5.15;;;2.70;;
8225;SDS011;4154;48.810;9.012;2023-10-13T13:53:53;5.90;;;2.65;;
8225;SDS011;4154;48.810;9.012;2023-10-13T13:56:19;5.35;;;3.00;;
8225;SDS011;4154;48.810;9.012;2023-10-13T13:58:46;5.22;;;2.60;;
8225;SDS011;4154;48.810;9.012;2023-10-13T14:01:13;4.30;;;2.90;;
8225;SDS011;4154;48.810;9.012;2023-10-13T14:03:42;5.72;;;3.15;;
8225;SDS011;4154;48.810;9.012;2023-10-13T14:06:10;4.07;;;2.83;;
8225;SDS011;4154;48.810;9.012;2023-10-13T14:08:47;6.45;;;2.53;;
8225;SDS011;4154;48.810;9.012;2023-10-13T14:11:19;11.23;;;2.80;;
8225;SDS011;4154;48.810;9.012;2023-10-13T14:13:48;4.53;;;2.67;;
8225;SDS011;4154;48.810;9.012;2023-10-13T14:16:18;7.20;;;2.70;;
8225;SDS011;4154;48.810;9.012;2023-10-13T14:18:48;4.68;;;2.70;;
8225;SDS011;4154;48.810;9.012;2023-10-13T14:21:16;5.82;;;2.55;;
8225;SDS011;4154;48.810;9.012;2023-10-13T14:23:44;3.10;;;2.63;;
8225;SDS011;4154;48.810;9.012;2023-10-13T14:26:14;4.35;;;2.83;;
8225;SDS011;4154;48.810;9.012;2023-10-13T14:29:01;6.65;;;2.95;;
8225;SDS011;4154;48.810;9.012;2023-10-13T14:31:28;5.38;;;2.88;;
8225;SDS011;4154;48.810;9.012;2023-10-13T14:33:55;8.43;;;2.80;;
8225;SDS011;4154;48.810;9.012;2023-10-13T14:36:22;4.88;;;2.60;;
8225;SDS011;4154;48.810;9.012;2023-10-13T14:38:48;6.18;;;2.70;;
8225;SDS011;4154;48.810;9.012;2023-10-13T14:41:15;3.60;;;2.80;;
8225;SDS011;4154;48.810;9.012;2023-10-13T14:43:43;5.55;;;2.83;;
8225;SDS011;4154;48.810;9.012;2023-10-13T14:46:19;4.30;;;2.80;;
8225;SDS011;4154;48.810;9.012;2023-10-13T14:48:48;4.15;;;2.88;;
8225;SDS011;4154;48.810;9.012;2023-10-13T14:51:17;5.00;;;2.95;;
8225;SDS011;4154;48.810;9.012;2023-10-13T14:53:44;6.38;;;3.08;;
8225;SDS011;4154;48.810;9.012;2023-10-13T14:56:14;7.80;;;3.22;;
8225;SDS011;4154;48.810;9.012;2023-10-13T14:58:42;4.75;;;3.00;;
8225;SDS011;4154;48.810;9.012;2023-10-13T15:01:12;5.70;;;3.17;;
8225;SDS011;4154;48.810;9.012;2023-10-13T15:03:45;4.05;;;2.95;;
8225;SDS011;4154;48.810;9.012;2023-10-13T15:08:43;5.65;;;2.97;;
8225;SDS011;4154;48.810;9.012;2023-10-13T15:11:13;4.88;;;2.63;;
8225;SDS011;4154;48.810;9.012;2023-10-13T15:13:43;6.15;;;2.90;;
8225;SDS011;4154;48.810;9.012;2023-10-13T15:16:13;5.28;;;2.80;;
8225;SDS011;4154;48.810;9.012;2023-10-13T15:18:46;5.93;;;3.03;;
8225;SDS011;4154;48.810;9.012;2023-10-13T15:21:24;3.30;;;3.00;;
8225;SDS011;4154;48.810;9.012;2023-10-13T15:24:16;5.90;;;3.13;;
8225;SDS011;4154;48.810;9.012;2023-10-13T15:26:44;5.10;;;2.83;;
8225;SDS011;4154;48.810;9.012;2023-10-13T15:29:17;6.57;;;3.30;;
8225;SDS011;4154;48.810;9.012;2023-10-13T15:31:50;4.00;;;2.95;;
8225;SDS011;4154;48.810;9.012;2023-10-13T15:34:26;5.93;;;2.65;;
8225;SDS011;4154;48.810;9.012;2023-10-13T15:36:53;4.95;;;2.90;;
8225;SDS011;4154;48.810;9.012;2023-10-13T15:39:20;5.00;;;2.85;;
8225;SDS011;4154;48.810;9.012;2023-10-13T15:41:54;6.30;;;2.88;;
8225;SDS011;4154;48.810;9.012;2023-10-13T15:44:26;4.30;;;2.78;;
8225;SDS011;4154;48.810;9.012;2023-10-13T15:46:56;4.95;;;2.50;;
8225;SDS011;4154;48.810;9.012;2023-10-13T15:49:24;4.78;;;3.30;;
8225;SDS011;4154;48.810;9.012;2023-10-13T15:51:53;4.53;;;2.75;;
8225;SDS011;4154;48.810;9.012;2023-10-13T15:54:22;3.80;;;2.83;;
8225;SDS011;4154;48.810;9.012;2023-10-13T15:56:49;4.07;;;2.88;;
8225;SDS011;4154;48.810;9.012;2023-10-13T15:59:19;6.25;;;2.80;;
8225;SDS011;4154;48.810;9.012;2023-10-13T16:01:48;4.95;;;2.63;;
8225;SDS011;4154;48.810;9.012;2023-10-13T16:04:14;4.15;;;2.97;;
8225;SDS011;4154;48.810;9.012;2023-10-13T16:06:40;4.00;;;2.95;;
8225;SDS011;4154;48.810;9.012;2023-10-13T16:09:11;5.13;;;3.17;;
8225;SDS011;4154;48.810;9.012;2023-10-13T16:11:43;5.13;;;2.83;;
8225;SDS011;4154;48.810;9.012;2023-10-13T16:14:11;6.07;;;2.75;;
8225;SDS011;4154;48.810;9.012;2023-10-13T16:16:43;4.47;;;2.63;;